sensor_id;sensor_type;location;lat;lon;timestamp;P1;durP1;ratioP1;P2;durP2;ratioP2
11203;SDS011;5659;49.408;11.116;2023-03-31T00:00:35;12.10;;;3.00;;
11203;SDS011;5659;49.408;11.116;2023-03-31T00:03:01;14.40;;;3.30;;
11203;SDS011;5659;49.408;11.116;2023-03-31T00:05:35;11.17;;;2.50;;
11203;SDS011;5659;49.408;11.116;2023-03-31T00:08:01;13.33;;;3.50;;
11203;SDS011;5659;49.408;11.116;2023-03-31T00:10:27;4.30;;;2.30;;
11203;SDS011;5659;49.408;11.116;2023-03-31T00:12:53;5.67;;;2.60;;
11203;SDS011;5659;49.408;11.116;2023-03-31T00:15:19;8.50;;;2.90;;
11203;SDS011;5659;49.408;11.116;2023-03-31T00:17:45;14.40;;;3.00;;
11203;SDS011;5659;49.408;11.116;2023-03-31T00:20:13;7.70;;;2.63;;
11203;SDS011;5659;49.408;11.116;2023-03-31T00:22:40;13.27;;;3.17;;
11203;SDS011;5659;49.408;11.116;2023-03-31T00:25:12;6.40;;;2.87;;
11203;SDS011;5659;49.408;11.116;2023-03-31T00:27:40;5.77;;;2.27;;
11203;SDS011;5659;49.408;11.116;2023-03-31T00:30:08;9.17;;;2.57;;
11203;SDS011;5659;49.408;11.116;2023-03-31T00:32:34;7.27;;;2.50;;
11203;SDS011;5659;49.408;11.116;2023-03-31T00:35:00;6.80;;;2.40;;
11203;SDS011;5659;49.408;11.116;2023-03-31T00:37:27;8.13;;;2.73;;
11203;SDS011;5659;49.408;11.116;2023-03-31T00:39:54;6.23;;;2.10;;
11203;SDS011;5659;49.408;11.116;2023-03-31T00:42:20;6.03;;;2.30;;
11203;SDS011;5659;49.408;11.116;2023-03-31T00:47:31;6.67;;;2.63;;
11203;SDS011;5659;49.408;11.116;2023-03-31T00:49:57;7.93;;;2.63;;
11203;SDS011;5659;49.408;11.116;2023-03-31T00:52:25;8.80;;;2.60;;
11203;SDS011;5659;49.408;11.116;2023-03-31T00:54:53;7.47;;;2.37;;
11203;SDS011;5659;49.408;11.116;2023-03-31T00:57:21;7.23;;;2.50;;
11203;SDS011;5659;49.408;11.116;2023-03-31T00:59:49;7.27;;;2.70;;
11203;SDS011;5659;49.408;11.116;2023-03-31T01:02:16;8.23;;;2.20;;
11203;SDS011;5659;49.408;11.116;2023-03-31T01:04:47;8.30;;;2.57;;
11203;SDS011;5659;49.408;11.116;2023-03-31T01:07:23;8.63;;;3.17;;
11203;SDS011;5659;49.408;11.116;2023-03-31T01:09:49;7.63;;;2.73;;
11203;SDS011;5659;49.408;11.116;2023-03-31T01:12:18;7.17;;;2.50;;
11203;SDS011;5659;49.408;11.116;2023-03-31T01:14:45;5.37;;;2.53;;
11203;SDS011;5659;49.408;11.116;2023-03-31T01:17:11;7.73;;;2.60;;
11203;SDS011;5659;49.408;11.116;2023-03-31T01:22:57;7.53;;;2.40;;
11203;SDS011;5659;49.408;11.116;2023-03-31T01:44:21;9.13;;;2.90;;
11203;SDS011;5659;49.408;11.116;2023-03-31T01:46:53;11.63;;;2.90;;
11203;SDS011;5659;49.408;11.116;2023-03-31T01:49:29;14.83;;;2.90;;
11203;SDS011;5659;49.408;11.116;2023-03-31T01:52:01;9.80;;;2.97;;
11203;SDS011;5659;49.408;11.116;2023-03-31T01:57:29;10.67;;;3.10;;
11203;SDS011;5659;49.408;11.116;2023-03-31T02:02:24;8.63;;;2.40;;
11203;SDS011;5659;49.408;11.116;2023-03-31T02:04:53;10.17;;;2.90;;
11203;SDS011;5659;49.408;11.116;2023-03-31T02:07:22;6.30;;;2.60;;
11203;SDS011;5659;49.408;11.116;2023-03-31T02:09:52;8.13;;;2.40;;
11203;SDS011;5659;49.408;11.116;2023-03-31T02:12:20;8.57;;;2.43;;
11203;SDS011;5659;49.408;11.116;2023-03-31T02:14:49;6.13;;;2.70;;
11203;SDS011;5659;49.408;11.116;2023-03-31T02:17:18;10.97;;;2.90;;
11203;SDS011;5659;49.408;11.116;2023-03-31T02:19:45;9.53;;;2.90;;
11203;SDS011;5659;49.408;11.116;2023-03-31T02:22:12;6.37;;;2.57;;
11203;SDS011;5659;49.408;11.116;2023-03-31T02:24:39;5.17;;;2.60;;
11203;SDS011;5659;49.408;11.116;2023-03-31T02:27:08;5.57;;;2.23;;
11203;SDS011;5659;49.408;11.116;2023-03-31T02:29:36;7.60;;;2.67;;
11203;SDS011;5659;49.408;11.116;2023-03-31T02:32:04;5.73;;;2.40;;
11203;SDS011;5659;49.408;11.116;2023-03-31T02:34:33;6.17;;;2.17;;
11203;SDS011;5659;49.408;11.116;2023-03-31T02:36:59;8.57;;;2.97;;
11203;SDS011;5659;49.408;11.116;2023-03-31T02:39:27;8.70;;;2.57;;
11203;SDS011;5659;49.408;11.116;2023-03-31T02:41:53;4.53;;;2.33;;
11203;SDS011;5659;49.408;11.116;2023-03-31T02:44:20;7.17;;;2.73;;
11203;SDS011;5659;49.408;11.116;2023-03-31T02:46:46;7.43;;;2.60;;
11203;SDS011;5659;49.408;11.116;2023-03-31T02:49:14;7.73;;;2.50;;
11203;SDS011;5659;49.408;11.116;2023-03-31T02:54:14;12.97;;;2.70;;
11203;SDS011;5659;49.408;11.116;2023-03-31T03:04:29;7.50;;;2.47;;
11203;SDS011;5659;49.408;11.116;2023-03-31T03:09:33;7.20;;;2.60;;
11203;SDS011;5659;49.408;11.116;2023-03-31T03:17:20;8.20;;;2.87;;
11203;SDS011;5659;49.408;11.116;2023-03-31T03:19:51;6.27;;;2.33;;
11203;SDS011;5659;49.408;11.116;2023-03-31T03:22:18;8.23;;;2.80;;
11203;SDS011;5659;49.408;11.116;2023-03-31T03:24:44;7.87;;;2.67;;
11203;SDS011;5659;49.408;11.116;2023-03-31T03:27:10;9.03;;;2.67;;
11203;SDS011;5659;49.408;11.116;2023-03-31T03:29:36;7.70;;;2.80;;
11203;SDS011;5659;49.408;11.116;2023-03-31T03:32:02;9.50;;;2.90;;
11203;SDS011;5659;49.408;11.116;2023-03-31T03:34:28;12.00;;;3.27;;
11203;SDS011;5659;49.408;11.116;2023-03-31T03:36:54;10.53;;;2.80;;
11203;SDS011;5659;49.408;11.116;2023-03-31T03:39:20;8.30;;;2.70;;
11203;SDS011;5659;49.408;11.116;2023-03-31T03:41:46;5.97;;;2.80;;
11203;SDS011;5659;49.408;11.116;2023-03-31T03:44:12;6.90;;;2.93;;
11203;SDS011;5659;49.408;11.116;2023-03-31T03:46:38;9.23;;;2.67;;
11203;SDS011;5659;49.408;11.116;2023-03-31T03:49:04;9.13;;;2.90;;
11203;SDS011;5659;49.408;11.116;2023-03-31T03:51:30;9.90;;;2.70;;
11203;SDS011;5659;49.408;11.116;2023-03-31T03:53:56;11.00;;;3.50;;
11203;SDS011;5659;49.408;11.116;2023-03-31T03:56:22;9.10;;;3.37;;
11203;SDS011;5659;49.408;11.116;2023-03-31T15:03:06;3.88;;;1.45;;
11203;SDS011;5659;49.408;11.116;2023-03-31T15:05:37;7.10;;;1.60;;
11203;SDS011;5659;49.408;11.116;2023-03-31T15:08:06;5.35;;;1.48;;
11203;SDS011;5659;49.408;11.116;2023-03-31T15:10:36;4.63;;;1.45;;
11203;SDS011;5659;49.408;11.116;2023-03-31T15:13:08;3.83;;;1.30;;
11203;SDS011;5659;49.408;11.116;2023-03-31T15:15:35;4.07;;;1.35;;
11203;SDS011;5659;49.408;11.116;2023-03-31T15:18:01;2.17;;;1.40;;
11203;SDS011;5659;49.408;11.116;2023-03-31T15:20:33;2.53;;;1.40;;
11203;SDS011;5659;49.408;11.116;2023-03-31T15:23:02;3.33;;;1.35;;
11203;SDS011;5659;49.408;11.116;2023-03-31T15:25:42;4.20;;;1.67;;
11203;SDS011;5659;49.408;11.116;2023-03-31T15:28:12;3.60;;;1.50;;
11203;SDS011;5659;49.408;11.116;2023-03-31T15:30:41;3.33;;;1.67;;
11203;SDS011;5659;49.408;11.116;2023-03-31T15:33:07;4.85;;;1.52;;
11203;SDS011;5659;49.408;11.116;2023-03-31T15:35:50;4.28;;;1.50;;
11203;SDS011;5659;49.408;11.116;2023-03-31T15:38:15;3.80;;;1.50;;
11203;SDS011;5659;49.408;11.116;2023-03-31T15:40:47;3.72;;;1.60;;
11203;SDS011;5659;49.408;11.116;2023-03-31T15:43:18;3.58;;;1.65;;
11203;SDS011;5659;49.408;11.116;2023-03-31T15:50:55;9.88;;;1.80;;
11203;SDS011;5659;49.408;11.116;2023-03-31T15:53:31;4.57;;;1.60;;
11203;SDS011;5659;49.408;11.116;2023-03-31T15:56:07;6.97;;;1.83;;
11203;SDS011;5659;49.408;11.116;2023-03-31T16:01:18;4.50;;;1.90;;
11203;SDS011;5659;49.408;11.116;2023-03-31T16:03:44;7.03;;;1.40;;
11203;SDS011;5659;49.408;11.116;2023-03-31T16:06:19;4.18;;;1.70;;
11203;SDS011;5659;49.408;11.116;2023-03-31T16:09:02;3.35;;;1.35;;
11203;SDS011;5659;49.408;11.116;2023-03-31T16:11:39;3.63;;;1.50;;
11203;SDS011;5659;49.408;11.116;2023-03-31T16:14:15;5.00;;;1.50;;
11203;SDS011;5659;49.408;11.116;2023-03-31T16:16:57;3.83;;;1.70;;
11203;SDS011;5659;49.408;11.116;2023-03-31T16:19:28;4.90;;;1.60;;
11203;SDS011;5659;49.408;11.116;2023-03-31T16:21:57;3.47;;;1.50;;
11203;SDS011;5659;49.408;11.116;2023-03-31T16:24:30;5.88;;;1.58;;
11203;SDS011;5659;49.408;11.116;2023-03-31T16:27:00;4.85;;;1.50;;
11203;SDS011;5659;49.408;11.116;2023-03-31T16:29:31;3.72;;;1.50;;
11203;SDS011;5659;49.408;11.116;2023-03-31T16:34:56;4.32;;;1.65;;
11203;SDS011;5659;49.408;11.116;2023-03-31T16:37:23;3.92;;;1.60;;
11203;SDS011;5659;49.408;11.116;2023-03-31T16:39:49;5.88;;;1.65;;
11203;SDS011;5659;49.408;11.116;2023-03-31T16:42:15;8.52;;;1.88;;
11203;SDS011;5659;49.408;11.116;2023-03-31T16:44:40;5.72;;;1.70;;
11203;SDS011;5659;49.408;11.116;2023-03-31T16:47:06;12.02;;;2.28;;
11203;SDS011;5659;49.408;11.116;2023-03-31T16:49:32;5.30;;;1.60;;
11203;SDS011;5659;49.408;11.116;2023-03-31T16:51:57;4.40;;;1.47;;
11203;SDS011;5659;49.408;11.116;2023-03-31T16:54:23;6.82;;;1.65;;
11203;SDS011;5659;49.408;11.116;2023-03-31T16:56:48;4.75;;;1.50;;
11203;SDS011;5659;49.408;11.116;2023-03-31T16:59:14;6.03;;;1.90;;
11203;SDS011;5659;49.408;11.116;2023-03-31T17:01:40;5.97;;;1.75;;
11203;SDS011;5659;49.408;11.116;2023-03-31T17:04:05;4.90;;;1.80;;
11203;SDS011;5659;49.408;11.116;2023-03-31T17:06:31;6.33;;;1.83;;
11203;SDS011;5659;49.408;11.116;2023-03-31T17:08:57;4.70;;;1.50;;
11203;SDS011;5659;49.408;11.116;2023-03-31T17:11:22;6.20;;;1.70;;
11203;SDS011;5659;49.408;11.116;2023-03-31T17:13:48;6.57;;;1.70;;
11203;SDS011;5659;49.408;11.116;2023-03-31T17:16:15;7.25;;;2.30;;
11203;SDS011;5659;49.408;11.116;2023-03-31T17:18:42;7.20;;;2.10;;
11203;SDS011;5659;49.408;11.116;2023-03-31T17:21:11;5.10;;;1.50;;
11203;SDS011;5659;49.408;11.116;2023-03-31T17:23:38;7.27;;;1.60;;
11203;SDS011;5659;49.408;11.116;2023-03-31T17:26:04;5.27;;;2.13;;
11203;SDS011;5659;49.408;11.116;2023-03-31T17:28:33;3.88;;;1.48;;
11203;SDS011;5659;49.408;11.116;2023-03-31T17:30:59;5.33;;;2.10;;
11203;SDS011;5659;49.408;11.116;2023-03-31T17:33:25;8.77;;;2.20;;
11203;SDS011;5659;49.408;11.116;2023-03-31T17:35:55;6.53;;;2.13;;
11203;SDS011;5659;49.408;11.116;2023-03-31T17:38:22;8.20;;;2.63;;
11203;SDS011;5659;49.408;11.116;2023-03-31T17:40:49;3.57;;;2.00;;
11203;SDS011;5659;49.408;11.116;2023-03-31T17:43:14;5.47;;;2.37;;
11203;SDS011;5659;49.408;11.116;2023-03-31T17:45:40;4.50;;;1.87;;
11203;SDS011;5659;49.408;11.116;2023-03-31T17:48:06;5.50;;;1.93;;
11203;SDS011;5659;49.408;11.116;2023-03-31T17:50:33;6.87;;;2.03;;
11203;SDS011;5659;49.408;11.116;2023-03-31T17:53:00;3.23;;;1.90;;
11203;SDS011;5659;49.408;11.116;2023-03-31T17:55:32;4.37;;;1.67;;
11203;SDS011;5659;49.408;11.116;2023-03-31T17:57:58;5.43;;;1.93;;
11203;SDS011;5659;49.408;11.116;2023-03-31T18:00:25;5.97;;;1.77;;
11203;SDS011;5659;49.408;11.116;2023-03-31T18:02:51;4.20;;;1.57;;
11203;SDS011;5659;49.408;11.116;2023-03-31T18:05:18;2.70;;;1.50;;
11203;SDS011;5659;49.408;11.116;2023-03-31T18:07:44;5.80;;;1.80;;
11203;SDS011;5659;49.408;11.116;2023-03-31T18:10:10;5.80;;;1.70;;
11203;SDS011;5659;49.408;11.116;2023-03-31T18:12:35;6.90;;;1.97;;
11203;SDS011;5659;49.408;11.116;2023-03-31T18:15:02;4.77;;;1.80;;
11203;SDS011;5659;49.408;11.116;2023-03-31T18:17:30;5.87;;;1.70;;
11203;SDS011;5659;49.408;11.116;2023-03-31T18:19:56;4.63;;;1.53;;
11203;SDS011;5659;49.408;11.116;2023-03-31T18:22:23;4.57;;;1.60;;
11203;SDS011;5659;49.408;11.116;2023-03-31T18:24:48;2.43;;;1.10;;
11203;SDS011;5659;49.408;11.116;2023-03-31T18:27:14;2.43;;;1.20;;
11203;SDS011;5659;49.408;11.116;2023-03-31T18:29:39;2.87;;;1.40;;
11203;SDS011;5659;49.408;11.116;2023-03-31T18:32:05;4.70;;;1.70;;
11203;SDS011;5659;49.408;11.116;2023-03-31T18:34:30;3.40;;;1.70;;
11203;SDS011;5659;49.408;11.116;2023-03-31T18:36:57;4.30;;;1.70;;
11203;SDS011;5659;49.408;11.116;2023-03-31T18:39:23;2.20;;;1.40;;
11203;SDS011;5659;49.408;11.116;2023-03-31T18:41:49;1.63;;;1.40;;
11203;SDS011;5659;49.408;11.116;2023-03-31T18:44:15;2.93;;;1.37;;
11203;SDS011;5659;49.408;11.116;2023-03-31T18:46:42;2.93;;;1.73;;
11203;SDS011;5659;49.408;11.116;2023-03-31T18:49:08;3.67;;;1.43;;
11203;SDS011;5659;49.408;11.116;2023-03-31T18:51:34;3.47;;;1.50;;
11203;SDS011;5659;49.408;11.116;2023-03-31T18:53:59;3.60;;;1.60;;
11203;SDS011;5659;49.408;11.116;2023-03-31T18:56:25;3.40;;;1.40;;
11203;SDS011;5659;49.408;11.116;2023-03-31T18:58:50;4.70;;;1.73;;
11203;SDS011;5659;49.408;11.116;2023-03-31T19:01:16;5.83;;;1.40;;
11203;SDS011;5659;49.408;11.116;2023-03-31T19:03:44;4.57;;;1.87;;
11203;SDS011;5659;49.408;11.116;2023-03-31T19:06:11;3.47;;;1.97;;
11203;SDS011;5659;49.408;11.116;2023-03-31T19:08:37;9.20;;;2.10;;
11203;SDS011;5659;49.408;11.116;2023-03-31T19:13:30;3.50;;;2.00;;
11203;SDS011;5659;49.408;11.116;2023-03-31T19:15:56;3.00;;;1.50;;
11203;SDS011;5659;49.408;11.116;2023-03-31T19:18:21;5.47;;;1.70;;
11203;SDS011;5659;49.408;11.116;2023-03-31T19:20:47;5.83;;;2.00;;
11203;SDS011;5659;49.408;11.116;2023-03-31T19:23:13;7.17;;;2.07;;
11203;SDS011;5659;49.408;11.116;2023-03-31T19:25:39;4.17;;;1.73;;
11203;SDS011;5659;49.408;11.116;2023-03-31T19:28:04;6.23;;;2.03;;
11203;SDS011;5659;49.408;11.116;2023-03-31T19:30:31;3.50;;;1.77;;
11203;SDS011;5659;49.408;11.116;2023-03-31T19:32:57;3.03;;;1.60;;
11203;SDS011;5659;49.408;11.116;2023-03-31T19:35:25;4.43;;;1.70;;
11203;SDS011;5659;49.408;11.116;2023-03-31T19:37:53;4.67;;;1.90;;
11203;SDS011;5659;49.408;11.116;2023-03-31T19:40:18;4.77;;;1.90;;
11203;SDS011;5659;49.408;11.116;2023-03-31T19:42:44;4.50;;;1.80;;
11203;SDS011;5659;49.408;11.116;2023-03-31T19:45:10;3.87;;;1.50;;
11203;SDS011;5659;49.408;11.116;2023-03-31T19:47:35;2.77;;;1.53;;
11203;SDS011;5659;49.408;11.116;2023-03-31T19:50:01;6.43;;;1.60;;
11203;SDS011;5659;49.408;11.116;2023-03-31T19:52:27;4.57;;;1.77;;
11203;SDS011;5659;49.408;11.116;2023-03-31T19:54:53;2.77;;;1.37;;
11203;SDS011;5659;49.408;11.116;2023-03-31T19:57:19;7.13;;;1.57;;
11203;SDS011;5659;49.408;11.116;2023-03-31T19:59:44;2.23;;;1.20;;
11203;SDS011;5659;49.408;11.116;2023-03-31T20:02:11;2.07;;;1.20;;
11203;SDS011;5659;49.408;11.116;2023-03-31T20:04:37;1.93;;;1.23;;
11203;SDS011;5659;49.408;11.116;2023-03-31T20:07:05;3.53;;;1.47;;
11203;SDS011;5659;49.408;11.116;2023-03-31T20:09:31;4.47;;;1.30;;
11203;SDS011;5659;49.408;11.116;2023-03-31T20:11:57;2.17;;;1.20;;
11203;SDS011;5659;49.408;11.116;2023-03-31T20:14:22;4.03;;;1.20;;
11203;SDS011;5659;49.408;11.116;2023-03-31T20:16:48;4.20;;;1.27;;
11203;SDS011;5659;49.408;11.116;2023-03-31T20:19:15;2.13;;;1.47;;
11203;SDS011;5659;49.408;11.116;2023-03-31T20:21:41;1.80;;;1.23;;
11203;SDS011;5659;49.408;11.116;2023-03-31T20:24:15;2.27;;;1.20;;
11203;SDS011;5659;49.408;11.116;2023-03-31T20:26:42;3.10;;;1.40;;
11203;SDS011;5659;49.408;11.116;2023-03-31T20:29:09;2.13;;;1.40;;
11203;SDS011;5659;49.408;11.116;2023-03-31T20:31:36;6.63;;;1.60;;
11203;SDS011;5659;49.408;11.116;2023-03-31T20:34:03;7.20;;;1.60;;
11203;SDS011;5659;49.408;11.116;2023-03-31T20:36:30;2.60;;;1.60;;
11203;SDS011;5659;49.408;11.116;2023-03-31T20:38:57;4.07;;;1.20;;
11203;SDS011;5659;49.408;11.116;2023-03-31T20:41:25;5.93;;;1.17;;
11203;SDS011;5659;49.408;11.116;2023-03-31T20:43:53;1.40;;;1.00;;
11203;SDS011;5659;49.408;11.116;2023-03-31T20:46:19;3.70;;;1.40;;
11203;SDS011;5659;49.408;11.116;2023-03-31T20:48:46;1.73;;;1.27;;
11203;SDS011;5659;49.408;11.116;2023-03-31T20:51:15;2.60;;;1.33;;
11203;SDS011;5659;49.408;11.116;2023-03-31T20:53:43;3.30;;;1.30;;
11203;SDS011;5659;49.408;11.116;2023-03-31T20:56:15;2.80;;;1.30;;
11203;SDS011;5659;49.408;11.116;2023-03-31T20:58:42;6.90;;;1.30;;
11203;SDS011;5659;49.408;11.116;2023-03-31T21:01:09;3.33;;;1.40;;
11203;SDS011;5659;49.408;11.116;2023-03-31T21:03:35;3.00;;;1.30;;
11203;SDS011;5659;49.408;11.116;2023-03-31T21:06:02;3.23;;;1.20;;
11203;SDS011;5659;49.408;11.116;2023-03-31T21:08:29;5.30;;;1.40;;
11203;SDS011;5659;49.408;11.116;2023-03-31T21:10:55;2.27;;;1.20;;
11203;SDS011;5659;49.408;11.116;2023-03-31T21:13:25;3.20;;;1.30;;
11203;SDS011;5659;49.408;11.116;2023-03-31T21:15:54;3.70;;;1.20;;
11203;SDS011;5659;49.408;11.116;2023-03-31T21:18:24;2.80;;;1.13;;
11203;SDS011;5659;49.408;11.116;2023-03-31T21:20:54;1.80;;;1.07;;
11203;SDS011;5659;49.408;11.116;2023-03-31T21:23:22;3.67;;;1.50;;
11203;SDS011;5659;49.408;11.116;2023-03-31T21:25:49;1.90;;;1.30;;
11203;SDS011;5659;49.408;11.116;2023-03-31T21:28:19;2.97;;;1.37;;
11203;SDS011;5659;49.408;11.116;2023-03-31T21:30:49;3.40;;;1.47;;
11203;SDS011;5659;49.408;11.116;2023-03-31T21:33:16;2.63;;;1.37;;
11203;SDS011;5659;49.408;11.116;2023-03-31T21:35:42;9.40;;;2.00;;
11203;SDS011;5659;49.408;11.116;2023-03-31T21:38:08;6.27;;;1.40;;
11203;SDS011;5659;49.408;11.116;2023-03-31T21:40:34;4.53;;;1.63;;
11203;SDS011;5659;49.408;11.116;2023-03-31T21:43:00;5.00;;;1.93;;
11203;SDS011;5659;49.408;11.116;2023-03-31T21:45:26;4.20;;;1.70;;
11203;SDS011;5659;49.408;11.116;2023-03-31T21:47:52;4.30;;;1.67;;
11203;SDS011;5659;49.408;11.116;2023-03-31T21:50:20;3.57;;;1.70;;
11203;SDS011;5659;49.408;11.116;2023-03-31T21:52:46;4.87;;;1.70;;
11203;SDS011;5659;49.408;11.116;2023-03-31T21:55:12;3.77;;;1.60;;
11203;SDS011;5659;49.408;11.116;2023-03-31T21:57:38;5.97;;;1.60;;
11203;SDS011;5659;49.408;11.116;2023-03-31T22:00:05;7.00;;;1.63;;
11203;SDS011;5659;49.408;11.116;2023-03-31T22:02:36;4.90;;;1.70;;
11203;SDS011;5659;49.408;11.116;2023-03-31T22:05:02;6.40;;;1.97;;
11203;SDS011;5659;49.408;11.116;2023-03-31T22:07:28;7.43;;;1.90;;
11203;SDS011;5659;49.408;11.116;2023-03-31T22:09:54;6.53;;;1.60;;
11203;SDS011;5659;49.408;11.116;2023-03-31T22:12:20;7.77;;;1.97;;
11203;SDS011;5659;49.408;11.116;2023-03-31T22:14:46;7.50;;;1.83;;
11203;SDS011;5659;49.408;11.116;2023-03-31T22:17:13;3.90;;;1.47;;
11203;SDS011;5659;49.408;11.116;2023-03-31T22:19:39;4.77;;;1.40;;
11203;SDS011;5659;49.408;11.116;2023-03-31T22:22:07;3.93;;;1.43;;
11203;SDS011;5659;49.408;11.116;2023-03-31T22:24:33;6.53;;;1.47;;
11203;SDS011;5659;49.408;11.116;2023-03-31T22:26:59;4.57;;;1.60;;
11203;SDS011;5659;49.408;11.116;2023-03-31T22:29:25;4.60;;;1.90;;
11203;SDS011;5659;49.408;11.116;2023-03-31T22:31:51;6.93;;;2.13;;
11203;SDS011;5659;49.408;11.116;2023-03-31T22:34:17;4.03;;;1.40;;
11203;SDS011;5659;49.408;11.116;2023-03-31T22:36:45;3.83;;;1.30;;
11203;SDS011;5659;49.408;11.116;2023-03-31T22:39:12;7.43;;;1.97;;
11203;SDS011;5659;49.408;11.116;2023-03-31T22:41:38;7.47;;;1.80;;
11203;SDS011;5659;49.408;11.116;2023-03-31T22:44:05;4.17;;;1.90;;
11203;SDS011;5659;49.408;11.116;2023-03-31T22:46:31;4.87;;;1.70;;
11203;SDS011;5659;49.408;11.116;2023-03-31T22:48:56;5.97;;;1.73;;
11203;SDS011;5659;49.408;11.116;2023-03-31T22:51:22;5.77;;;1.70;;
11203;SDS011;5659;49.408;11.116;2023-03-31T22:53:51;5.47;;;1.70;;
11203;SDS011;5659;49.408;11.116;2023-03-31T22:56:18;5.57;;;1.70;;
11203;SDS011;5659;49.408;11.116;2023-03-31T22:58:45;6.70;;;1.60;;
11203;SDS011;5659;49.408;11.116;2023-03-31T23:01:12;6.63;;;1.90;;
11203;SDS011;5659;49.408;11.116;2023-03-31T23:03:40;8.83;;;1.80;;
11203;SDS011;5659;49.408;11.116;2023-03-31T23:06:06;5.90;;;1.60;;
11203;SDS011;5659;49.408;11.116;2023-03-31T23:08:33;7.03;;;1.90;;
11203;SDS011;5659;49.408;11.116;2023-03-31T23:11:00;6.27;;;2.07;;
11203;SDS011;5659;49.408;11.116;2023-03-31T23:13:27;9.20;;;1.70;;
11203;SDS011;5659;49.408;11.116;2023-03-31T23:15:53;3.67;;;1.50;;
11203;SDS011;5659;49.408;11.116;2023-03-31T23:18:19;3.43;;;1.50;;
11203;SDS011;5659;49.408;11.116;2023-03-31T23:20:45;4.60;;;1.60;;
11203;SDS011;5659;49.408;11.116;2023-03-31T23:23:11;13.57;;;1.77;;
11203;SDS011;5659;49.408;11.116;2023-03-31T23:25:37;4.63;;;1.77;;
11203;SDS011;5659;49.408;11.116;2023-03-31T23:28:02;7.00;;;1.93;;
11203;SDS011;5659;49.408;11.116;2023-03-31T23:30:28;6.17;;;1.87;;
11203;SDS011;5659;49.408;11.116;2023-03-31T23:32:54;5.10;;;1.87;;
11203;SDS011;5659;49.408;11.116;2023-03-31T23:35:19;8.97;;;1.90;;
11203;SDS011;5659;49.408;11.116;2023-03-31T23:37:45;10.23;;;1.87;;
11203;SDS011;5659;49.408;11.116;2023-03-31T23:40:11;8.27;;;2.17;;
11203;SDS011;5659;49.408;11.116;2023-03-31T23:42:37;5.07;;;1.80;;
11203;SDS011;5659;49.408;11.116;2023-03-31T23:45:03;3.90;;;1.70;;
11203;SDS011;5659;49.408;11.116;2023-03-31T23:47:31;6.03;;;1.73;;
11203;SDS011;5659;49.408;11.116;2023-03-31T23:49:57;6.77;;;2.53;;
11203;SDS011;5659;49.408;11.116;2023-03-31T23:52:23;5.00;;;1.90;;
11203;SDS011;5659;49.408;11.116;2023-03-31T23:54:49;9.60;;;2.10;;
11203;SDS011;5659;49.408;11.116;2023-03-31T23:57:16;5.57;;;1.60;;
11203;SDS011;5659;49.408;11.116;2023-03-31T23:59:42;8.57;;;2.10;;
